createdAt,value
2022-10-19T00:00:00.100Z,23.60
2022-10-19T00:02:27.818Z,24.90
2022-10-19T00:04:55.623Z,25.25
2022-10-19T00:07:23.332Z,26.65
2022-10-19T00:09:51.193Z,33.78
2022-10-19T00:12:18.931Z,29.38
2022-10-19T00:14:48.064Z,27.98
2022-10-19T00:17:15.865Z,24.98
2022-10-19T00:19:43.491Z,24.00
2022-10-19T00:22:13.193Z,21.77
2022-10-19T00:24:42.106Z,21.00
2022-10-19T00:27:09.895Z,20.80
2022-10-19T00:29:37.626Z,20.92
2022-10-19T00:32:06.791Z,22.15
2022-10-19T00:34:34.433Z,19.30
2022-10-19T00:37:02.153Z,18.33
2022-10-19T00:39:29.885Z,18.77
2022-10-19T00:41:57.590Z,20.35
2022-10-19T00:45:00.761Z,20.10
2022-10-19T00:47:30.091Z,21.30
2022-10-19T00:49:59.743Z,19.30
2022-10-19T00:52:28.698Z,17.98
2022-10-19T00:54:58.927Z,18.50
2022-10-19T00:57:30.329Z,21.50
2022-10-19T00:59:59.978Z,19.42
2022-10-19T01:02:29.083Z,17.48
2022-10-19T01:04:57.212Z,16.92
2022-10-19T01:07:26.284Z,19.38
2022-10-19T01:09:54.446Z,18.38
2022-10-19T01:12:46.315Z,22.80
2022-10-19T01:15:24.583Z,18.63
2022-10-19T01:18:01.303Z,20.83
2022-10-19T01:21:08.966Z,19.27
2022-10-19T01:24:23.064Z,21.65
2022-10-19T01:27:38.212Z,28.52
2022-10-19T01:30:14.657Z,15.95
2022-10-19T01:32:53.163Z,25.48
2022-10-19T01:35:28.466Z,16.85
2022-10-19T01:38:07.002Z,19.38
2022-10-19T01:40:41.639Z,20.27
2022-10-19T01:43:14.116Z,25.58
2022-10-19T01:45:49.498Z,17.73
2022-10-19T01:48:20.303Z,19.50
2022-10-19T01:50:53.350Z,18.05
2022-10-19T01:53:22.606Z,23.15
2022-10-19T01:55:53.037Z,22.42
2022-10-19T01:58:25.931Z,24.95
2022-10-19T02:00:58.160Z,27.63
2022-10-19T02:03:26.962Z,23.85
2022-10-19T02:05:56.004Z,28.13
2022-10-19T02:08:28.010Z,28.98
2022-10-19T02:10:57.569Z,35.75
2022-10-19T02:13:27.553Z,48.65
2022-10-19T02:16:00.501Z,39.47
2022-10-19T02:18:33.939Z,39.45
2022-10-19T02:21:02.489Z,40.22
2022-10-19T02:23:30.266Z,46.20
2022-10-19T02:25:58.794Z,47.78
2022-10-19T02:28:27.324Z,45.25
2022-10-19T02:30:56.685Z,50.03
2022-10-19T02:33:25.032Z,48.30
2022-10-19T02:35:52.791Z,72.80
2022-10-19T02:38:22.803Z,48.50
2022-10-19T02:41:03.737Z,76.40
2022-10-19T02:43:35.544Z,35.15
2022-10-19T02:46:09.709Z,60.97
2022-10-19T02:48:40.325Z,68.18
2022-10-19T02:51:08.019Z,51.17
2022-10-19T02:53:35.687Z,42.53
2022-10-19T02:56:03.403Z,63.85
2022-10-19T02:58:31.063Z,57.85
2022-10-19T03:00:58.745Z,72.25
2022-10-19T03:03:27.815Z,49.17
2022-10-19T03:05:56.476Z,46.58
2022-10-19T03:08:24.110Z,55.88
2022-10-19T03:10:51.765Z,37.58
2022-10-19T03:13:19.405Z,44.15
2022-10-19T03:15:47.500Z,34.83
2022-10-19T03:18:15.249Z,58.25
2022-10-19T03:20:44.302Z,82.93
2022-10-19T03:23:12.074Z,53.40
2022-10-19T03:25:39.752Z,41.50
2022-10-19T03:28:07.406Z,54.28
2022-10-19T03:30:35.096Z,42.90
2022-10-19T03:33:02.719Z,40.85
2022-10-19T03:35:30.491Z,64.93
2022-10-19T03:37:59.574Z,46.30
2022-10-19T03:40:27.208Z,45.20
2022-10-19T03:42:54.918Z,54.88
2022-10-19T03:45:22.590Z,43.60
2022-10-19T03:47:50.593Z,53.83
2022-10-19T03:50:19.048Z,38.30
2022-10-19T03:52:46.723Z,54.60
2022-10-19T03:55:16.131Z,48.92
2022-10-19T03:57:44.185Z,54.95
2022-10-19T04:00:13.327Z,39.85
2022-10-19T04:02:41.024Z,69.68
2022-10-19T04:05:09.392Z,67.85
2022-10-19T04:07:37.146Z,48.83
2022-10-19T04:10:05.226Z,82.20
2022-10-19T04:12:34.435Z,49.30
2022-10-19T04:15:02.138Z,64.15
2022-10-19T04:17:29.868Z,52.90
2022-10-19T04:19:57.638Z,81.43
2022-10-19T04:22:25.340Z,56.13
2022-10-19T04:24:54.443Z,63.72
2022-10-19T04:27:22.167Z,56.92
2022-10-19T04:29:51.211Z,55.15
2022-10-19T04:32:18.948Z,51.50
2022-10-19T04:34:46.661Z,42.50
2022-10-19T04:37:14.323Z,55.63
2022-10-19T04:39:43.356Z,58.42
2022-10-19T04:42:11.325Z,65.57
2022-10-19T04:44:39.569Z,69.82
2022-10-19T04:47:09.222Z,41.63
2022-10-19T04:49:36.934Z,62.10
2022-10-19T04:52:04.715Z,52.90
2022-10-19T04:54:32.375Z,47.90
2022-10-19T04:57:00.128Z,51.05
2022-10-19T04:59:28.193Z,57.88
2022-10-19T05:01:55.852Z,48.85
2022-10-19T05:04:24.909Z,49.15
2022-10-19T05:06:52.559Z,52.10
2022-10-19T05:09:20.302Z,48.38
2022-10-19T05:11:50.482Z,50.78
2022-10-19T05:14:18.325Z,48.22
2022-10-19T05:16:46.077Z,48.90
2022-10-19T05:19:15.159Z,47.67
2022-10-19T05:21:44.417Z,55.83
2022-10-19T05:24:13.563Z,45.05
2022-10-19T05:26:41.248Z,42.70
2022-10-19T05:29:13.076Z,49.55
2022-10-19T05:31:41.664Z,51.93
2022-10-19T05:34:09.536Z,46.72
2022-10-19T05:36:38.761Z,51.50
2022-10-19T05:39:09.298Z,44.25
2022-10-19T05:41:37.128Z,59.85
2022-10-19T05:44:06.291Z,62.45
2022-10-19T05:46:34.845Z,44.08
2022-10-19T05:49:02.935Z,55.92
2022-10-19T05:51:30.680Z,61.58
2022-10-19T05:53:58.414Z,73.63
2022-10-19T05:56:29.419Z,120.25
2022-10-19T05:58:57.817Z,73.20
2022-10-19T06:01:26.471Z,63.42
2022-10-19T06:03:56.300Z,55.63
2022-10-19T06:06:25.184Z,78.10
2022-10-19T06:08:54.209Z,49.50
2022-10-19T06:11:23.762Z,53.38
2022-10-19T06:13:55.838Z,44.22
2022-10-19T06:16:25.039Z,91.47
2022-10-19T06:18:54.033Z,43.03
2022-10-19T06:21:23.572Z,53.90
2022-10-19T06:23:51.685Z,40.72
2022-10-19T06:26:19.757Z,44.15
2022-10-19T06:28:48.705Z,55.90
2022-10-19T06:31:18.991Z,66.70
2022-10-19T06:33:49.408Z,58.20
2022-10-19T06:36:19.886Z,41.00
2022-10-19T06:38:49.428Z,37.47
2022-10-19T06:41:17.747Z,32.65
2022-10-19T06:43:45.581Z,34.33
2022-10-19T06:46:20.151Z,33.08
2022-10-19T06:48:52.688Z,40.67
2022-10-19T06:51:21.448Z,34.13
2022-10-19T06:53:52.870Z,33.05
2022-10-19T06:56:25.189Z,39.20
2022-10-19T06:58:53.744Z,36.63
2022-10-19T07:01:21.761Z,32.08
2022-10-19T07:03:53.381Z,29.70
2022-10-19T07:06:21.725Z,40.90
2022-10-19T07:08:49.715Z,35.65
2022-10-19T07:11:19.127Z,41.22
2022-10-19T07:13:46.962Z,38.17
2022-10-19T07:16:19.812Z,37.22
2022-10-19T07:18:50.147Z,32.45
2022-10-19T07:21:21.604Z,35.42
2022-10-19T07:23:49.406Z,34.88
2022-10-19T07:26:19.493Z,31.40
2022-10-19T07:28:49.209Z,38.45
2022-10-19T07:31:20.247Z,33.13
2022-10-19T07:33:48.226Z,35.45
2022-10-19T07:36:16.036Z,36.00
2022-10-19T07:38:45.430Z,30.02
2022-10-19T07:41:15.132Z,37.30
2022-10-19T07:43:44.447Z,31.13
2022-10-19T07:46:17.146Z,28.80
2022-10-19T07:51:14.913Z,26.33
2022-10-19T07:53:43.535Z,33.20
2022-10-19T07:56:14.183Z,26.73
2022-10-19T07:58:42.551Z,26.55
2022-10-19T08:01:13.267Z,21.17
2022-10-19T08:06:30.448Z,29.20
2022-10-19T08:08:58.484Z,34.97
2022-10-19T08:11:29.290Z,32.10
2022-10-19T08:13:59.229Z,28.45
2022-10-19T08:16:28.891Z,28.98
2022-10-19T08:18:58.882Z,31.55
2022-10-19T08:21:27.196Z,34.70
2022-10-19T08:23:55.151Z,28.98
2022-10-19T08:26:22.954Z,26.40
2022-10-19T08:28:52.584Z,31.92
2022-10-19T08:31:22.379Z,31.70
2022-10-19T08:33:51.243Z,29.50
2022-10-19T08:36:21.368Z,28.77
2022-10-19T08:38:49.768Z,31.70
2022-10-19T08:41:25.706Z,26.92
2022-10-19T08:44:15.189Z,29.83
2022-10-19T08:46:49.458Z,28.52
2022-10-19T08:49:24.323Z,29.45
2022-10-19T08:51:56.834Z,29.67
2022-10-19T08:54:29.704Z,25.70
2022-10-19T08:57:05.704Z,24.17
2022-10-19T08:59:45.653Z,26.90
2022-10-19T09:02:20.468Z,27.05
2022-10-19T09:04:51.639Z,25.58
2022-10-19T09:07:27.405Z,28.98
2022-10-19T09:09:58.524Z,22.45
2022-10-19T09:12:41.107Z,24.98
2022-10-19T09:15:14.039Z,26.38
2022-10-19T09:17:42.016Z,21.30
2022-10-19T09:20:18.757Z,25.45
2022-10-19T09:22:47.688Z,24.23
2022-10-19T09:25:19.908Z,23.63
2022-10-19T09:27:50.169Z,20.38
2022-10-19T09:30:21.586Z,22.10
2022-10-19T09:32:51.359Z,23.55
2022-10-19T09:35:26.919Z,24.08
2022-10-19T09:37:55.321Z,23.27
2022-10-19T09:40:25.330Z,26.50
2022-10-19T09:42:57.251Z,27.15
2022-10-19T09:45:36.290Z,28.27
2022-10-19T09:48:13.315Z,33.47
2022-10-19T09:50:44.678Z,32.63
2022-10-19T09:53:20.479Z,28.45
2022-10-19T09:55:54.272Z,27.52
2022-10-19T09:58:22.100Z,32.95
2022-10-19T10:00:55.400Z,32.78
2022-10-19T10:03:26.378Z,28.67
2022-10-19T10:05:54.941Z,25.70
2022-10-19T10:08:25.622Z,30.52
2022-10-19T10:11:08.086Z,32.20
2022-10-19T10:13:41.502Z,32.50
2022-10-19T10:16:17.521Z,29.45
2022-10-19T10:18:54.882Z,31.05
2022-10-19T10:21:25.826Z,32.58
2022-10-19T10:24:02.229Z,31.17
2022-10-19T10:26:30.320Z,32.10
2022-10-19T10:29:01.352Z,33.22
2022-10-19T10:31:31.380Z,33.55
2022-10-19T10:34:12.258Z,34.40
2022-10-19T10:36:52.337Z,40.15
2022-10-19T10:39:20.246Z,36.97
2022-10-19T10:41:49.701Z,32.53
2022-10-19T10:44:21.736Z,34.58
2022-10-19T10:46:56.421Z,38.75
2022-10-19T10:49:27.977Z,34.10
2022-10-19T10:51:58.097Z,37.05
2022-10-19T10:54:28.469Z,41.10
2022-10-19T10:57:07.011Z,35.17
2022-10-19T10:59:43.116Z,37.28
2022-10-19T11:05:00.340Z,33.10
2022-10-19T11:07:30.238Z,34.45
2022-10-19T11:10:00.095Z,34.42
2022-10-19T11:12:37.147Z,36.83
2022-10-19T11:15:15.070Z,37.40
2022-10-19T11:17:59.436Z,33.30
2022-10-19T11:20:31.144Z,37.08
2022-10-19T11:23:08.367Z,33.85
2022-10-19T11:25:50.474Z,30.40
2022-10-19T11:28:30.231Z,27.33
2022-10-19T11:31:05.884Z,27.75
2022-10-19T11:33:47.168Z,29.75
2022-10-19T11:36:31.344Z,27.92
2022-10-19T11:39:22.739Z,27.80
2022-10-19T11:42:01.710Z,28.58
2022-10-19T11:44:46.924Z,26.42
2022-10-19T11:47:32.982Z,29.13
2022-10-19T11:50:14.840Z,29.77
2022-10-19T11:52:50.581Z,28.15
2022-10-19T11:55:29.999Z,28.35
2022-10-19T11:58:05.609Z,29.73
2022-10-19T12:00:41.434Z,29.67
2022-10-19T12:03:35.225Z,31.85
2022-10-19T12:06:12.758Z,28.83
2022-10-19T12:08:58.417Z,22.17
2022-10-19T12:11:38.916Z,22.40
2022-10-19T12:14:13.722Z,20.00
2022-10-19T12:16:45.338Z,21.35
2022-10-19T12:19:19.323Z,23.38
2022-10-19T12:21:49.484Z,19.27
2022-10-19T12:24:20.446Z,20.85
2022-10-19T12:26:48.861Z,18.17
2022-10-19T12:29:20.984Z,20.48
2022-10-19T12:31:50.044Z,22.73
2022-10-19T12:34:27.927Z,19.70
2022-10-19T12:37:03.505Z,19.42
2022-10-19T12:39:39.830Z,18.73
2022-10-19T12:42:16.913Z,18.70
2022-10-19T12:45:13.834Z,16.85
2022-10-19T12:47:41.947Z,17.85
2022-10-19T12:50:09.812Z,14.65
2022-10-19T12:52:43.026Z,15.07
2022-10-19T12:55:34.632Z,15.25
2022-10-19T12:58:05.237Z,16.08
2022-10-19T13:00:34.968Z,13.82
2022-10-19T13:03:06.926Z,15.98
2022-10-19T13:05:35.713Z,16.63
2022-10-19T13:08:10.613Z,16.85
2022-10-19T13:10:41.751Z,13.30
2022-10-19T13:13:42.752Z,16.15
2022-10-19T13:16:39.642Z,16.77
2022-10-19T13:19:22.594Z,13.20
2022-10-19T13:22:25.610Z,16.77
2022-10-19T13:25:33.112Z,15.02
2022-10-19T13:28:39.407Z,14.57
2022-10-19T13:31:24.962Z,15.15
2022-10-19T13:33:54.360Z,14.90
2022-10-19T13:36:24.218Z,14.68
2022-10-19T13:39:08.549Z,15.15
2022-10-19T13:41:57.290Z,12.52
2022-10-19T13:44:35.420Z,15.52
2022-10-19T13:47:18.100Z,16.38
2022-10-19T13:50:20.508Z,13.60
2022-10-19T13:53:13.538Z,16.77
2022-10-19T13:58:44.599Z,14.68
2022-10-19T14:01:24.297Z,12.73
2022-10-19T14:04:09.110Z,11.30
2022-10-19T14:06:42.680Z,12.95
2022-10-19T14:09:35.613Z,12.05
2022-10-19T14:12:08.593Z,13.93
2022-10-19T14:14:44.060Z,10.77
2022-10-19T14:19:54.539Z,8.20
2022-10-19T14:22:26.789Z,10.05
2022-10-19T14:25:01.805Z,11.73
2022-10-19T14:27:31.380Z,7.88
2022-10-19T14:29:59.429Z,6.20
2022-10-19T14:32:30.409Z,8.82
2022-10-19T14:35:02.194Z,5.93
2022-10-19T14:37:30.032Z,8.93
2022-10-19T14:39:59.755Z,6.15
2022-10-19T14:42:37.375Z,9.15
2022-10-19T14:45:07.511Z,6.60
2022-10-19T14:47:36.547Z,7.70
2022-10-19T14:50:05.123Z,6.00
2022-10-19T14:52:38.232Z,7.95
2022-10-19T14:55:13.943Z,6.30
2022-10-19T14:57:47.487Z,5.97
2022-10-19T15:00:18.991Z,9.35
2022-10-19T15:02:52.007Z,7.07
2022-10-19T15:05:22.104Z,5.20
2022-10-19T15:07:50.659Z,6.07
2022-10-19T15:10:22.137Z,4.40
2022-10-19T15:12:51.874Z,8.52
2022-10-19T15:15:26.186Z,9.00
2022-10-19T15:17:57.087Z,6.10
2022-10-19T15:20:28.055Z,6.22
2022-10-19T15:22:56.418Z,4.70
2022-10-19T15:25:36.800Z,10.40
2022-10-19T15:28:22.121Z,10.80
2022-10-19T15:31:00.619Z,11.35
2022-10-19T15:33:29.861Z,6.15
2022-10-19T15:36:07.549Z,5.50
2022-10-19T15:38:37.297Z,6.43
2022-10-19T15:41:05.719Z,7.28
2022-10-19T15:43:48.272Z,7.88
2022-10-19T15:46:25.942Z,3.97
2022-10-19T15:48:56.222Z,5.70
2022-10-19T15:51:43.737Z,4.55
2022-10-19T15:54:12.440Z,8.43
2022-10-19T15:56:41.189Z,5.78
2022-10-19T15:59:14.004Z,8.38
2022-10-19T16:01:43.199Z,7.00
2022-10-19T16:04:12.959Z,4.50
2022-10-19T16:06:43.469Z,7.45
2022-10-19T16:09:18.519Z,9.55
2022-10-19T16:11:47.306Z,6.97
2022-10-19T16:14:18.138Z,7.32
2022-10-19T16:16:45.910Z,9.02
2022-10-19T16:19:14.979Z,12.18
2022-10-19T16:21:46.691Z,15.18
2022-10-19T16:24:17.276Z,16.35
2022-10-19T16:26:45.091Z,11.35
2022-10-19T16:29:12.895Z,12.93
2022-10-19T16:31:40.644Z,12.20
2022-10-19T16:34:08.396Z,10.40
2022-10-19T16:36:37.540Z,10.02
2022-10-19T16:39:05.498Z,10.48
2022-10-19T16:41:33.488Z,8.68
2022-10-19T16:44:01.344Z,7.88
2022-10-19T16:46:30.268Z,8.23
2022-10-19T16:48:58.282Z,8.23
2022-10-19T16:51:37.372Z,8.45
2022-10-19T16:54:07.569Z,8.98
2022-10-19T16:56:36.500Z,8.43
2022-10-19T16:59:07.258Z,7.28
2022-10-19T17:01:36.106Z,6.78
2022-10-19T17:04:04.104Z,8.07
2022-10-19T17:06:32.040Z,6.97
2022-10-19T17:11:49.282Z,7.53
2022-10-19T17:14:17.064Z,6.78
2022-10-19T17:16:45.271Z,6.38
2022-10-19T17:19:13.271Z,11.75
2022-10-19T17:21:42.515Z,8.02
2022-10-19T17:24:20.208Z,7.65
2022-10-19T17:26:50.271Z,7.63
2022-10-19T17:29:18.280Z,11.55
2022-10-19T17:31:46.564Z,15.48
2022-10-19T17:34:14.320Z,21.88
2022-10-19T17:36:45.505Z,10.77
2022-10-19T17:39:18.264Z,9.80
2022-10-19T17:44:15.495Z,14.30
2022-10-19T17:46:43.419Z,8.88
2022-10-19T17:49:11.719Z,6.93
2022-10-19T17:51:40.394Z,10.40
2022-10-19T17:54:10.091Z,12.63
2022-10-19T17:56:39.914Z,7.82
2022-10-19T17:59:09.423Z,8.80
2022-10-19T18:01:38.043Z,8.13
2022-10-19T18:04:06.370Z,11.98
2022-10-19T18:06:37.097Z,9.18
2022-10-19T18:09:07.633Z,8.65
2022-10-19T18:11:38.647Z,14.77
2022-10-19T18:14:09.427Z,11.20
2022-10-19T18:16:40.224Z,13.65
2022-10-19T18:19:09.212Z,8.70
2022-10-19T18:21:39.666Z,13.10
2022-10-19T18:24:11.278Z,9.60
2022-10-19T18:26:42.169Z,8.75
2022-10-19T18:29:13.918Z,7.80
2022-10-19T18:31:42.082Z,12.27
2022-10-19T18:34:15.228Z,10.77
2022-10-19T18:36:43.142Z,8.40
2022-10-19T18:39:12.083Z,8.32
2022-10-19T18:41:40.571Z,7.75
2022-10-19T18:44:12.719Z,8.80
2022-10-19T18:46:40.845Z,9.38
2022-10-19T18:49:09.831Z,8.55
2022-10-19T18:51:37.867Z,12.27
2022-10-19T18:54:06.165Z,8.82
2022-10-19T18:56:36.425Z,7.80
2022-10-19T18:59:04.989Z,8.00
2022-10-19T19:01:34.438Z,8.80
2022-10-19T19:04:08.050Z,7.72
2022-10-19T19:06:36.324Z,8.65
2022-10-19T19:09:06.871Z,8.88
2022-10-19T19:11:37.412Z,11.18
2022-10-19T19:14:07.282Z,10.20
2022-10-19T19:16:38.298Z,8.77
2022-10-19T19:19:07.161Z,9.02
2022-10-19T19:21:36.769Z,9.50
2022-10-19T19:24:07.270Z,9.20
2022-10-19T19:26:37.917Z,11.70
2022-10-19T19:29:05.738Z,10.55
2022-10-19T19:31:33.481Z,12.30
2022-10-19T19:34:03.341Z,10.25
2022-10-19T19:36:31.436Z,10.23
2022-10-19T19:38:59.697Z,10.90
2022-10-19T19:41:28.799Z,15.20
2022-10-19T19:43:57.571Z,14.63
2022-10-19T19:46:25.349Z,12.38
2022-10-19T19:49:00.070Z,9.82
2022-10-19T19:51:30.614Z,15.18
2022-10-19T19:53:58.419Z,12.65
2022-10-19T19:56:26.453Z,10.05
2022-10-19T19:58:56.585Z,14.93
2022-10-19T20:01:24.370Z,14.52
2022-10-19T20:03:53.163Z,11.73
2022-10-19T20:06:24.961Z,15.07
2022-10-19T20:08:56.410Z,13.20
2022-10-19T20:11:25.954Z,11.45
2022-10-19T20:13:54.121Z,11.05
2022-10-19T20:16:26.714Z,11.70
2022-10-19T20:19:00.170Z,16.02
2022-10-19T20:21:29.238Z,16.50
2022-10-19T20:23:58.504Z,12.10
2022-10-19T20:26:27.193Z,12.57
2022-10-19T20:28:55.116Z,12.18
2022-10-19T20:31:23.141Z,13.40
2022-10-19T20:33:51.022Z,11.30
2022-10-19T20:36:21.140Z,13.27
2022-10-19T20:38:51.012Z,11.98
2022-10-19T20:41:21.748Z,11.23
2022-10-19T20:43:51.987Z,15.52
2022-10-19T20:46:22.293Z,12.65
2022-10-19T20:48:50.711Z,12.20
2022-10-19T20:51:21.033Z,11.85
2022-10-19T20:53:50.358Z,13.77
2022-10-19T20:56:23.072Z,13.65
2022-10-19T20:58:55.982Z,12.70
2022-10-19T21:01:24.108Z,17.35
2022-10-19T21:03:53.874Z,14.75
2022-10-19T21:06:23.266Z,15.80
2022-10-19T21:08:51.467Z,12.80
2022-10-19T21:11:22.728Z,12.90
2022-10-19T21:13:54.189Z,12.65
2022-10-19T21:16:23.197Z,13.32
2022-10-19T21:18:51.927Z,12.95
2022-10-19T21:21:21.491Z,15.55
2022-10-19T21:23:52.504Z,12.02
2022-10-19T21:26:21.848Z,13.02
2022-10-19T21:28:53.076Z,11.73
2022-10-19T21:31:21.155Z,13.82
2022-10-19T21:33:49.401Z,14.32
2022-10-19T21:36:17.648Z,15.93
2022-10-19T21:38:45.542Z,13.95
2022-10-19T21:41:16.144Z,12.38
2022-10-19T21:43:45.304Z,12.73
2022-10-19T21:46:15.051Z,15.25
2022-10-19T21:48:43.161Z,13.00
2022-10-19T21:51:23.966Z,16.30
2022-10-19T21:53:52.039Z,15.63
2022-10-19T21:56:19.834Z,18.25
2022-10-19T21:58:50.176Z,15.07
2022-10-19T22:01:19.808Z,14.65
2022-10-19T22:03:47.690Z,17.90
2022-10-19T22:06:15.628Z,15.75
2022-10-19T22:08:47.387Z,15.13
2022-10-19T22:11:15.900Z,18.50
2022-10-19T22:13:43.741Z,20.23
2022-10-19T22:16:15.437Z,17.33
2022-10-19T22:18:43.464Z,18.85
2022-10-19T22:21:13.348Z,15.20
2022-10-19T22:23:41.513Z,18.13
2022-10-19T22:26:16.159Z,17.35
2022-10-19T22:28:44.969Z,17.15
2022-10-19T22:31:14.344Z,18.05
2022-10-19T22:33:42.150Z,15.25
2022-10-19T22:36:12.848Z,16.10
2022-10-19T22:38:41.482Z,17.35
2022-10-19T22:41:09.653Z,14.27
2022-10-19T22:43:37.416Z,17.50
2022-10-19T22:46:05.101Z,18.58
2022-10-19T22:48:35.044Z,20.48
2022-10-19T22:51:02.722Z,19.13
2022-10-19T22:53:30.653Z,17.58
2022-10-19T22:55:58.376Z,19.08
2022-10-19T22:58:26.064Z,26.75
2022-10-19T23:01:05.175Z,19.40
2022-10-19T23:03:34.734Z,19.38
2022-10-19T23:06:02.878Z,20.30
2022-10-19T23:08:30.546Z,18.27
2022-10-19T23:10:58.242Z,21.73
2022-10-19T23:13:26.035Z,18.67
2022-10-19T23:15:53.856Z,15.73
2022-10-19T23:18:21.818Z,24.00
2022-10-19T23:20:57.838Z,24.88
2022-10-19T23:23:25.842Z,19.40
2022-10-19T23:26:01.276Z,18.10
2022-10-19T23:28:29.724Z,19.55
2022-10-19T23:30:58.881Z,19.77
2022-10-19T23:33:27.155Z,18.58
2022-10-19T23:35:56.239Z,20.08
2022-10-19T23:38:24.014Z,20.92
2022-10-19T23:40:51.751Z,22.33
2022-10-19T23:43:19.456Z,25.27
2022-10-19T23:45:47.194Z,22.40
2022-10-19T23:48:15.101Z,19.42
2022-10-19T23:50:42.834Z,23.00
2022-10-19T23:53:12.394Z,19.20
2022-10-19T23:55:40.121Z,21.08
2022-10-19T23:58:07.948Z,19.83
